sensor_id;sensor_type;location;lat;lon;timestamp;pressure;altitude;pressure_sealevel;temperature;humidity
59190;BME280;50749;51.636;4.948;2024-01-25T00:01:43;102902.03;;;16.51;56.02
59190;BME280;50749;51.636;4.948;2024-01-25T00:04:12;102894.56;;;16.51;56.12
59190;BME280;50749;51.636;4.948;2024-01-25T00:06:41;102894.84;;;16.50;56.43
59190;BME280;50749;51.636;4.948;2024-01-25T00:09:09;102894.84;;;16.50;56.07
59190;BME280;50749;51.636;4.948;2024-01-25T00:11:38;102907.31;;;16.47;56.43
59190;BME280;50749;51.636;4.948;2024-01-25T00:14:07;102907.31;;;16.47;56.25
59190;BME280;50749;51.636;4.948;2024-01-25T00:16:40;102895.44;;;16.47;56.14
59190;BME280;50749;51.636;4.948;2024-01-25T00:19:09;102896.59;;;16.46;56.14
59190;BME280;50749;51.636;4.948;2024-01-25T00:21:41;102892.19;;;16.45;56.22
59190;BME280;50749;51.636;4.948;2024-01-25T00:24:12;102903.81;;;16.42;56.41
59190;BME280;50749;51.636;4.948;2024-01-25T00:26:41;102894.41;;;16.43;56.35
59190;BME280;50749;51.636;4.948;2024-01-25T00:29:10;102891.94;;;16.41;56.42
59190;BME280;50749;51.636;4.948;2024-01-25T00:31:41;102899.38;;;16.41;56.12
59190;BME280;50749;51.636;4.948;2024-01-25T00:34:10;102901.34;;;16.40;56.18
59190;BME280;50749;51.636;4.948;2024-01-25T00:36:40;102894.19;;;16.39;56.08
59190;BME280;50749;51.636;4.948;2024-01-25T00:39:09;102889.78;;;16.38;56.32
59190;BME280;50749;51.636;4.948;2024-01-25T00:41:38;102893.66;;;16.37;56.29
59190;BME280;50749;51.636;4.948;2024-01-25T00:44:09;102901.13;;;16.37;56.29
59190;BME280;50749;51.636;4.948;2024-01-25T00:46:41;102893.94;;;16.35;56.34
59190;BME280;50749;51.636;4.948;2024-01-25T00:49:13;102888.44;;;16.35;56.35
59190;BME280;50749;51.636;4.948;2024-01-25T00:51:45;102890.66;;;16.33;56.54
59190;BME280;50749;51.636;4.948;2024-01-25T00:54:15;102889.03;;;16.32;56.34
59190;BME280;50749;51.636;4.948;2024-01-25T00:56:44;102900.38;;;16.31;56.41
59190;BME280;50749;51.636;4.948;2024-01-25T00:59:17;102895.16;;;16.29;56.49
59190;BME280;50749;51.636;4.948;2024-01-25T01:01:49;102897.91;;;16.29;56.20
59190;BME280;50749;51.636;4.948;2024-01-25T01:04:21;102896.25;;;16.28;56.15
59190;BME280;50749;51.636;4.948;2024-01-25T01:06:50;102889.94;;;16.28;56.34
59190;BME280;50749;51.636;4.948;2024-01-25T01:09:19;102898.22;;;16.28;56.47
59190;BME280;50749;51.636;4.948;2024-01-25T01:11:48;102905.69;;;16.27;56.54
59190;BME280;50749;51.636;4.948;2024-01-25T01:14:18;102899.59;;;16.25;56.10
59190;BME280;50749;51.636;4.948;2024-01-25T01:16:49;102907.88;;;16.25;55.96
59190;BME280;50749;51.636;4.948;2024-01-25T01:19:18;102910.94;;;16.24;56.14
59190;BME280;50749;51.636;4.948;2024-01-25T01:21:47;102916.47;;;16.24;56.34
59190;BME280;50749;51.636;4.948;2024-01-25T01:24:15;102923.13;;;16.23;56.27
59190;BME280;50749;51.636;4.948;2024-01-25T01:26:44;102919.50;;;16.22;56.40
59190;BME280;50749;51.636;4.948;2024-01-25T01:29:14;102926.16;;;16.21;56.44
59190;BME280;50749;51.636;4.948;2024-01-25T01:31:43;102930.88;;;16.21;56.17
59190;BME280;50749;51.636;4.948;2024-01-25T01:34:14;102935.56;;;16.20;56.22
59190;BME280;50749;51.636;4.948;2024-01-25T01:36:43;102940.25;;;16.20;56.16
59190;BME280;50749;51.636;4.948;2024-01-25T01:39:12;102939.44;;;16.19;56.25
59190;BME280;50749;51.636;4.948;2024-01-25T01:41:40;102925.94;;;16.18;56.30
59190;BME280;50749;51.636;4.948;2024-01-25T01:44:09;102927.84;;;16.17;56.40
59190;BME280;50749;51.636;4.948;2024-01-25T01:46:38;102927.84;;;16.17;56.17
59190;BME280;50749;51.636;4.948;2024-01-25T01:49:14;102932.84;;;16.15;56.36
59190;BME280;50749;51.636;4.948;2024-01-25T01:51:43;102935.63;;;16.15;56.52
59190;BME280;50749;51.636;4.948;2024-01-25T01:54:10;102932.06;;;16.14;56.48
59190;BME280;50749;51.636;4.948;2024-01-25T01:56:39;102940.63;;;16.13;56.09
59190;BME280;50749;51.636;4.948;2024-01-25T01:59:10;102935.09;;;16.13;56.16
59190;BME280;50749;51.636;4.948;2024-01-25T02:01:39;102934.28;;;16.12;56.39
59190;BME280;50749;51.636;4.948;2024-01-25T02:04:08;102941.72;;;16.12;56.29
59190;BME280;50749;51.636;4.948;2024-01-25T02:06:40;102955.00;;;16.10;56.13
59190;BME280;50749;51.636;4.948;2024-01-25T02:09:12;102965.22;;;16.09;56.45
59190;BME280;50749;51.636;4.948;2024-01-25T02:11:40;102961.31;;;16.10;56.41
59190;BME280;50749;51.636;4.948;2024-01-25T02:14:09;102978.22;;;16.09;56.27
59190;BME280;50749;51.636;4.948;2024-01-25T02:16:38;102979.31;;;16.08;56.49
59190;BME280;50749;51.636;4.948;2024-01-25T02:19:11;102977.66;;;16.07;56.39
59190;BME280;50749;51.636;4.948;2024-01-25T02:21:42;102976.03;;;16.06;56.37
59190;BME280;50749;51.636;4.948;2024-01-25T02:24:13;102971.63;;;16.05;56.73
59190;BME280;50749;51.636;4.948;2024-01-25T02:26:42;102977.13;;;16.05;56.64
59190;BME280;50749;51.636;4.948;2024-01-25T02:29:11;102969.97;;;16.04;56.67
59190;BME280;50749;51.636;4.948;2024-01-25T02:31:40;102974.66;;;16.03;56.79
59190;BME280;50749;51.636;4.948;2024-01-25T02:34:09;102976.63;;;16.03;56.69
59190;BME280;50749;51.636;4.948;2024-01-25T02:36:37;102978.56;;;16.02;57.09
59190;BME280;50749;51.636;4.948;2024-01-25T02:39:06;102969.44;;;16.02;56.80
59190;BME280;50749;51.636;4.948;2024-01-25T02:41:38;102976.09;;;16.01;57.02
59190;BME280;50749;51.636;4.948;2024-01-25T02:44:08;102975.25;;;16.00;57.09
59190;BME280;50749;51.636;4.948;2024-01-25T02:46:36;102989.34;;;15.98;57.16
59190;BME280;50749;51.636;4.948;2024-01-25T02:49:05;102981.06;;;15.98;56.99
59190;BME280;50749;51.636;4.948;2024-01-25T02:51:34;102981.38;;;15.97;56.77
59190;BME280;50749;51.636;4.948;2024-01-25T02:54:03;102992.41;;;15.97;57.04
59190;BME280;50749;51.636;4.948;2024-01-25T02:56:31;102992.69;;;15.95;57.28
59190;BME280;50749;51.636;4.948;2024-01-25T02:59:03;102993.81;;;15.94;57.08
59190;BME280;50749;51.636;4.948;2024-01-25T03:01:38;102998.50;;;15.94;57.12
59190;BME280;50749;51.636;4.948;2024-01-25T03:04:07;102994.91;;;15.93;56.95
59190;BME280;50749;51.636;4.948;2024-01-25T03:06:36;102990.53;;;15.92;57.06
59190;BME280;50749;51.636;4.948;2024-01-25T03:09:04;102976.22;;;15.90;56.99
59190;BME280;50749;51.636;4.948;2024-01-25T03:11:33;102959.66;;;15.90;57.11
59190;BME280;50749;51.636;4.948;2024-01-25T03:14:05;102954.94;;;15.91;57.09
59190;BME280;50749;51.636;4.948;2024-01-25T03:16:33;102955.25;;;15.89;57.12
59190;BME280;50749;51.636;4.948;2024-01-25T03:19:02;102975.38;;;15.90;57.19
59190;BME280;50749;51.636;4.948;2024-01-25T03:21:31;102982.31;;;15.87;57.39
59190;BME280;50749;51.636;4.948;2024-01-25T03:24:00;102967.38;;;15.88;57.12
59190;BME280;50749;51.636;4.948;2024-01-25T03:26:28;102970.44;;;15.87;57.17
59190;BME280;50749;51.636;4.948;2024-01-25T03:28:57;102976.78;;;15.87;57.34
59190;BME280;50749;51.636;4.948;2024-01-25T03:31:28;102977.88;;;15.86;57.34
59190;BME280;50749;51.636;4.948;2024-01-25T03:33:57;102961.63;;;15.85;57.39
59190;BME280;50749;51.636;4.948;2024-01-25T03:36:26;102966.34;;;15.84;57.52
59190;BME280;50749;51.636;4.948;2024-01-25T03:38:55;102975.72;;;15.83;57.27
59190;BME280;50749;51.636;4.948;2024-01-25T03:41:23;102985.94;;;15.83;57.63
59190;BME280;50749;51.636;4.948;2024-01-25T03:43:55;102973.25;;;15.82;57.51
59190;BME280;50749;51.636;4.948;2024-01-25T03:46:23;102976.84;;;15.82;57.50
59190;BME280;50749;51.636;4.948;2024-01-25T03:48:55;102971.63;;;15.81;57.44
59190;BME280;50749;51.636;4.948;2024-01-25T03:51:23;102985.69;;;15.79;57.68
59190;BME280;50749;51.636;4.948;2024-01-25T03:53:52;102988.44;;;15.79;57.32
59190;BME280;50749;51.636;4.948;2024-01-25T03:56:23;102984.03;;;15.78;57.46
59190;BME280;50749;51.636;4.948;2024-01-25T03:58:52;102985.97;;;15.77;57.35
59190;BME280;50749;51.636;4.948;2024-01-25T04:01:21;102988.75;;;15.77;57.44
59190;BME280;50749;51.636;4.948;2024-01-25T04:03:50;102993.72;;;15.75;57.64
59190;BME280;50749;51.636;4.948;2024-01-25T04:06:21;103004.47;;;15.77;57.49
59190;BME280;50749;51.636;4.948;2024-01-25T04:08:50;102990.09;;;15.75;57.60
59190;BME280;50749;51.636;4.948;2024-01-25T04:11:19;102982.97;;;15.74;57.50
59190;BME280;50749;51.636;4.948;2024-01-25T04:13:47;102985.72;;;15.74;57.33
59190;BME280;50749;51.636;4.948;2024-01-25T04:16:16;102980.50;;;15.72;57.46
59190;BME280;50749;51.636;4.948;2024-01-25T04:18:45;102982.44;;;15.72;57.68
59190;BME280;50749;51.636;4.948;2024-01-25T04:21:14;102978.84;;;15.71;57.54
59190;BME280;50749;51.636;4.948;2024-01-25T04:23:45;102978.03;;;15.71;57.71
59190;BME280;50749;51.636;4.948;2024-01-25T04:26:14;102969.22;;;15.69;57.94
59190;BME280;50749;51.636;4.948;2024-01-25T04:28:43;102976.66;;;15.68;57.59
59190;BME280;50749;51.636;4.948;2024-01-25T04:31:12;102984.34;;;15.71;57.62
59190;BME280;50749;51.636;4.948;2024-01-25T04:33:41;102984.59;;;15.75;57.74
59190;BME280;50749;51.636;4.948;2024-01-25T04:36:10;102977.13;;;15.81;57.90
59190;BME280;50749;51.636;4.948;2024-01-25T04:38:39;102978.19;;;15.85;57.80
59190;BME280;50749;51.636;4.948;2024-01-25T04:41:10;102985.28;;;15.91;58.08
59190;BME280;50749;51.636;4.948;2024-01-25T04:43:39;102986.06;;;15.96;57.95
59190;BME280;50749;51.636;4.948;2024-01-25T04:46:09;102984.38;;;16.01;57.77
59190;BME280;50749;51.636;4.948;2024-01-25T04:48:38;102975.19;;;16.05;58.05
59190;BME280;50749;51.636;4.948;2024-01-25T04:51:06;102976.25;;;16.09;57.74
59190;BME280;50749;51.636;4.948;2024-01-25T04:53:35;102974.53;;;16.13;57.67
59190;BME280;50749;51.636;4.948;2024-01-25T04:56:04;102984.41;;;16.20;57.58
59190;BME280;50749;51.636;4.948;2024-01-25T04:58:36;102987.41;;;16.23;57.73
59190;BME280;50749;51.636;4.948;2024-01-25T05:01:04;102980.19;;;16.27;57.74
59190;BME280;50749;51.636;4.948;2024-01-25T05:03:33;102979.59;;;16.30;57.46
59190;BME280;50749;51.636;4.948;2024-01-25T05:06:03;102975.13;;;16.34;57.42
59190;BME280;50749;51.636;4.948;2024-01-25T05:08:32;102985.59;;;16.38;57.79
59190;BME280;50749;51.636;4.948;2024-01-25T05:11:00;102977.81;;;16.40;57.41
59190;BME280;50749;51.636;4.948;2024-01-25T05:13:29;102978.34;;;16.42;57.65
59190;BME280;50749;51.636;4.948;2024-01-25T05:16:00;102985.22;;;16.44;57.48
59190;BME280;50749;51.636;4.948;2024-01-25T05:18:29;102990.47;;;16.46;57.51
59190;BME280;50749;51.636;4.948;2024-01-25T05:20:58;102992.59;;;16.49;57.54
59190;BME280;50749;51.636;4.948;2024-01-25T05:23:27;102993.66;;;16.53;57.66
59190;BME280;50749;51.636;4.948;2024-01-25T05:25:55;102992.22;;;16.56;57.48
59190;BME280;50749;51.636;4.948;2024-01-25T05:28:24;102994.41;;;16.59;57.66
59190;BME280;50749;51.636;4.948;2024-01-25T05:30:53;102997.41;;;16.62;57.43
59190;BME280;50749;51.636;4.948;2024-01-25T05:33:25;103002.56;;;16.69;57.18
59190;BME280;50749;51.636;4.948;2024-01-25T05:35:53;102996.50;;;16.67;56.41
59190;BME280;50749;51.636;4.948;2024-01-25T05:38:22;102990.47;;;16.65;55.56
59190;BME280;50749;51.636;4.948;2024-01-25T05:40:51;102989.94;;;16.63;55.33
59190;BME280;50749;51.636;4.948;2024-01-25T05:43:20;103000.72;;;16.64;55.69
59190;BME280;50749;51.636;4.948;2024-01-25T05:45:48;103002.84;;;16.67;56.68
59190;BME280;50749;51.636;4.948;2024-01-25T05:48:18;103008.06;;;16.69;56.34
59190;BME280;50749;51.636;4.948;2024-01-25T05:50:49;102998.09;;;16.73;56.89
59190;BME280;50749;51.636;4.948;2024-01-25T05:53:18;102978.16;;;16.76;56.81
59190;BME280;50749;51.636;4.948;2024-01-25T05:55:47;102985.03;;;16.79;56.93
59190;BME280;50749;51.636;4.948;2024-01-25T05:58:16;102982.78;;;16.81;56.82
59190;BME280;50749;51.636;4.948;2024-01-25T06:00:44;102988.00;;;16.82;57.28
59190;BME280;50749;51.636;4.948;2024-01-25T06:03:13;102996.84;;;16.84;57.35
59190;BME280;50749;51.636;4.948;2024-01-25T06:05:42;102998.50;;;16.85;57.30
59190;BME280;50749;51.636;4.948;2024-01-25T06:08:13;102998.19;;;16.87;57.05
59190;BME280;50749;51.636;4.948;2024-01-25T06:10:42;102997.91;;;16.88;57.07
59190;BME280;50749;51.636;4.948;2024-01-25T06:13:11;102994.84;;;16.90;57.06
59190;BME280;50749;51.636;4.948;2024-01-25T06:15:40;103003.94;;;16.90;57.15
59190;BME280;50749;51.636;4.948;2024-01-25T06:18:09;103002.84;;;16.92;57.23
59190;BME280;50749;51.636;4.948;2024-01-25T06:20:38;103003.66;;;16.92;57.53
59190;BME280;50749;51.636;4.948;2024-01-25T06:23:07;103003.13;;;16.90;57.24
59190;BME280;50749;51.636;4.948;2024-01-25T06:25:38;103006.78;;;16.85;57.24
59190;BME280;50749;51.636;4.948;2024-01-25T06:28:07;102994.91;;;16.85;56.89
59190;BME280;50749;51.636;4.948;2024-01-25T06:30:35;102997.38;;;16.86;56.72
59190;BME280;50749;51.636;4.948;2024-01-25T06:33:05;102998.19;;;16.87;56.95
59190;BME280;50749;51.636;4.948;2024-01-25T06:35:33;102994.31;;;16.88;56.97
59190;BME280;50749;51.636;4.948;2024-01-25T06:38:02;103001.47;;;16.89;57.10
59190;BME280;50749;51.636;4.948;2024-01-25T06:40:31;102994.75;;;16.95;56.93
59190;BME280;50749;51.636;4.948;2024-01-25T06:43:03;102993.94;;;16.95;57.12
59190;BME280;50749;51.636;4.948;2024-01-25T06:45:32;103002.75;;;16.97;56.97
59190;BME280;50749;51.636;4.948;2024-01-25T06:48:01;103011.34;;;16.95;56.76
59190;BME280;50749;51.636;4.948;2024-01-25T06:50:29;103006.63;;;16.96;57.10
59190;BME280;50749;51.636;4.948;2024-01-25T06:52:59;103007.44;;;16.96;56.94
59190;BME280;50749;51.636;4.948;2024-01-25T06:55:28;103013.81;;;16.97;57.01
59190;BME280;50749;51.636;4.948;2024-01-25T06:57:57;103014.31;;;16.99;57.04
59190;BME280;50749;51.636;4.948;2024-01-25T07:00:28;103008.81;;;16.99;56.98
59190;BME280;50749;51.636;4.948;2024-01-25T07:02:57;103011.94;;;16.92;57.01
59190;BME280;50749;51.636;4.948;2024-01-25T07:05:26;103019.19;;;16.88;57.38
59190;BME280;50749;51.636;4.948;2024-01-25T07:07:59;103013.13;;;16.86;57.43
59190;BME280;50749;51.636;4.948;2024-01-25T07:10:27;103007.84;;;16.89;57.44
59190;BME280;50749;51.636;4.948;2024-01-25T07:12:56;103010.06;;;16.87;56.58
59190;BME280;50749;51.636;4.948;2024-01-25T07:15:28;103010.06;;;16.87;56.76
59190;BME280;50749;51.636;4.948;2024-01-25T07:17:56;103012.53;;;16.89;56.60
59190;BME280;50749;51.636;4.948;2024-01-25T07:20:25;103020.81;;;16.89;56.71
59190;BME280;50749;51.636;4.948;2024-01-25T07:22:54;103012.53;;;16.89;56.75
59190;BME280;50749;51.636;4.948;2024-01-25T07:25:22;103021.13;;;16.87;56.87
59190;BME280;50749;51.636;4.948;2024-01-25T07:27:53;103026.94;;;16.86;57.08
59190;BME280;50749;51.636;4.948;2024-01-25T07:30:22;103026.13;;;16.85;56.68
59190;BME280;50749;51.636;4.948;2024-01-25T07:32:53;103032.75;;;16.84;56.81
59190;BME280;50749;51.636;4.948;2024-01-25T07:35:22;103030.28;;;16.83;56.81
59190;BME280;50749;51.636;4.948;2024-01-25T07:37:51;103039.69;;;16.82;56.69
59190;BME280;50749;51.636;4.948;2024-01-25T07:40:20;103034.44;;;16.80;56.76
59190;BME280;50749;51.636;4.948;2024-01-25T07:42:48;103037.50;;;16.79;57.06
59190;BME280;50749;51.636;4.948;2024-01-25T07:45:17;103029.50;;;16.77;57.06
59190;BME280;50749;51.636;4.948;2024-01-25T07:47:46;103017.13;;;16.75;57.07
59190;BME280;50749;51.636;4.948;2024-01-25T07:50:17;103020.47;;;16.71;56.99
59190;BME280;50749;51.636;4.948;2024-01-25T07:52:46;103027.13;;;16.70;56.90
59190;BME280;50749;51.636;4.948;2024-01-25T07:55:15;103028.53;;;16.68;56.94
59190;BME280;50749;51.636;4.948;2024-01-25T07:57:44;103029.34;;;16.68;56.63
59190;BME280;50749;51.636;4.948;2024-01-25T08:00:13;103032.94;;;16.69;56.54
59190;BME280;50749;51.636;4.948;2024-01-25T08:02:42;103038.75;;;16.67;56.65
59190;BME280;50749;51.636;4.948;2024-01-25T08:05:11;103043.25;;;16.63;56.82
59190;BME280;50749;51.636;4.948;2024-01-25T08:07:44;103019.50;;;16.62;56.49
59190;BME280;50749;51.636;4.948;2024-01-25T08:10:14;102995.78;;;16.61;56.66
59190;BME280;50749;51.636;4.948;2024-01-25T08:12:43;102994.94;;;16.61;56.76
59190;BME280;50749;51.636;4.948;2024-01-25T08:15:13;103009.03;;;16.59;56.70
59190;BME280;50749;51.636;4.948;2024-01-25T08:17:42;103008.50;;;16.57;56.79
59190;BME280;50749;51.636;4.948;2024-01-25T08:20:11;103008.50;;;16.57;56.76
59190;BME280;50749;51.636;4.948;2024-01-25T08:22:44;103003.28;;;16.56;56.89
59190;BME280;50749;51.636;4.948;2024-01-25T08:25:13;103017.38;;;16.54;56.71
59190;BME280;50749;51.636;4.948;2024-01-25T08:27:42;103021.28;;;16.53;56.58
59190;BME280;50749;51.636;4.948;2024-01-25T08:30:12;103023.53;;;16.51;56.58
59190;BME280;50749;51.636;4.948;2024-01-25T08:32:41;103011.94;;;16.49;56.71
59190;BME280;50749;51.636;4.948;2024-01-25T08:35:10;103019.41;;;16.48;56.54
59190;BME280;50749;51.636;4.948;2024-01-25T08:37:39;103013.88;;;16.48;56.66
59190;BME280;50749;51.636;4.948;2024-01-25T08:40:11;103015.31;;;16.46;56.61
59190;BME280;50749;51.636;4.948;2024-01-25T08:42:40;103019.16;;;16.45;56.57
59190;BME280;50749;51.636;4.948;2024-01-25T08:45:09;103031.88;;;16.46;56.77
59190;BME280;50749;51.636;4.948;2024-01-25T08:47:38;103034.06;;;16.44;56.87
59190;BME280;50749;51.636;4.948;2024-01-25T08:50:08;103021.41;;;16.43;56.81
59190;BME280;50749;51.636;4.948;2024-01-25T08:52:39;103019.75;;;16.42;56.77
59190;BME280;50749;51.636;4.948;2024-01-25T08:55:11;103030.78;;;16.42;56.69
59190;BME280;50749;51.636;4.948;2024-01-25T08:57:39;103016.47;;;16.40;56.69
59190;BME280;50749;51.636;4.948;2024-01-25T09:00:09;103016.47;;;16.40;56.50
59190;BME280;50749;51.636;4.948;2024-01-25T09:02:39;103019.53;;;16.38;56.42
59190;BME280;50749;51.636;4.948;2024-01-25T09:05:08;103025.84;;;16.39;56.65
59190;BME280;50749;51.636;4.948;2024-01-25T09:07:37;103021.19;;;16.39;56.45
59190;BME280;50749;51.636;4.948;2024-01-25T09:10:07;103021.19;;;16.39;56.29
59190;BME280;50749;51.636;4.948;2024-01-25T09:12:39;103014.81;;;16.39;56.43
59190;BME280;50749;51.636;4.948;2024-01-25T09:15:09;103022.28;;;16.38;56.52
59190;BME280;50749;51.636;4.948;2024-01-25T09:17:38;103025.84;;;16.39;56.63
59190;BME280;50749;51.636;4.948;2024-01-25T09:20:08;103021.47;;;16.38;56.71
59190;BME280;50749;51.636;4.948;2024-01-25T09:22:37;103015.09;;;16.37;56.39
59190;BME280;50749;51.636;4.948;2024-01-25T09:25:06;103017.06;;;16.37;56.40
59190;BME280;50749;51.636;4.948;2024-01-25T09:27:35;103024.53;;;16.36;56.62
59190;BME280;50749;51.636;4.948;2024-01-25T09:30:07;103031.97;;;16.35;57.01
59190;BME280;50749;51.636;4.948;2024-01-25T09:32:36;103026.75;;;16.34;56.71
59190;BME280;50749;51.636;4.948;2024-01-25T09:35:05;103029.53;;;16.34;56.92
59190;BME280;50749;51.636;4.948;2024-01-25T09:37:34;103023.16;;;16.33;56.74
59190;BME280;50749;51.636;4.948;2024-01-25T09:40:04;103026.50;;;16.30;56.99
59190;BME280;50749;51.636;4.948;2024-01-25T09:42:34;103017.41;;;16.30;56.91
59190;BME280;50749;51.636;4.948;2024-01-25T09:45:07;103018.50;;;16.29;56.81
59190;BME280;50749;51.636;4.948;2024-01-25T09:47:37;103016.88;;;16.28;56.72
59190;BME280;50749;51.636;4.948;2024-01-25T09:50:07;103029.88;;;16.27;57.16
59190;BME280;50749;51.636;4.948;2024-01-25T09:52:37;103018.84;;;16.27;56.75
59190;BME280;50749;51.636;4.948;2024-01-25T09:55:07;103010.00;;;16.25;56.92
59190;BME280;50749;51.636;4.948;2024-01-25T09:57:36;103019.41;;;16.24;56.97
59190;BME280;50749;51.636;4.948;2024-01-25T10:00:09;103008.38;;;16.24;57.19
59190;BME280;50749;51.636;4.948;2024-01-25T10:02:38;103002.88;;;16.24;57.07
59190;BME280;50749;51.636;4.948;2024-01-25T10:05:07;102998.44;;;16.23;57.15
59190;BME280;50749;51.636;4.948;2024-01-25T10:07:37;102995.16;;;16.21;56.90
59190;BME280;50749;51.636;4.948;2024-01-25T10:10:08;102992.69;;;16.20;56.76
59190;BME280;50749;51.636;4.948;2024-01-25T10:12:41;102983.59;;;16.19;56.60
59190;BME280;50749;51.636;4.948;2024-01-25T10:15:12;102989.13;;;16.19;56.02
59190;BME280;50749;51.636;4.948;2024-01-25T10:17:41;102977.53;;;16.17;56.24
59190;BME280;50749;51.636;4.948;2024-01-25T10:20:13;102973.97;;;16.16;55.91
59190;BME280;50749;51.636;4.948;2024-01-25T10:22:43;102984.19;;;16.16;56.31
59190;BME280;50749;51.636;4.948;2024-01-25T10:25:12;102985.28;;;16.15;56.44
59190;BME280;50749;51.636;4.948;2024-01-25T10:27:41;102977.00;;;16.15;55.91
59190;BME280;50749;51.636;4.948;2024-01-25T10:30:14;102971.50;;;16.15;55.63
59190;BME280;50749;51.636;4.948;2024-01-25T10:32:43;102976.50;;;16.13;56.51
59190;BME280;50749;51.636;4.948;2024-01-25T10:35:14;102976.78;;;16.11;56.30
59190;BME280;50749;51.636;4.948;2024-01-25T10:37:44;102971.25;;;16.11;56.53
59190;BME280;50749;51.636;4.948;2024-01-25T10:40:13;102972.38;;;16.10;56.72
59190;BME280;50749;51.636;4.948;2024-01-25T10:42:43;102978.22;;;16.09;56.70
59190;BME280;50749;51.636;4.948;2024-01-25T10:45:15;102989.25;;;16.09;56.84
59190;BME280;50749;51.636;4.948;2024-01-25T10:47:48;102985.66;;;16.08;56.78
59190;BME280;50749;51.636;4.948;2024-01-25T10:50:16;102989.53;;;16.07;56.69
59190;BME280;50749;51.636;4.948;2024-01-25T10:52:46;102980.41;;;16.07;56.70
59190;BME280;50749;51.636;4.948;2024-01-25T10:55:16;102972.97;;;16.07;56.92
59190;BME280;50749;51.636;4.948;2024-01-25T10:57:46;102973.28;;;16.06;56.70
59190;BME280;50749;51.636;4.948;2024-01-25T11:00:17;102964.16;;;16.05;56.75
59190;BME280;50749;51.636;4.948;2024-01-25T11:02:46;102966.09;;;16.05;57.04
59190;BME280;50749;51.636;4.948;2024-01-25T11:05:16;102965.28;;;16.04;57.00
59190;BME280;50749;51.636;4.948;2024-01-25T11:07:48;102962.53;;;16.04;56.89
59190;BME280;50749;51.636;4.948;2024-01-25T11:10:18;102942.97;;;16.01;57.07
59190;BME280;50749;51.636;4.948;2024-01-25T11:12:51;102942.69;;;16.02;56.93
59190;BME280;50749;51.636;4.948;2024-01-25T11:15:30;102932.75;;;16.01;56.92
59190;BME280;50749;51.636;4.948;2024-01-25T11:18:00;102930.81;;;16.02;57.05
59190;BME280;50749;51.636;4.948;2024-01-25T11:20:30;102915.41;;;16.01;57.07
59190;BME280;50749;51.636;4.948;2024-01-25T11:23:01;102913.75;;;16.00;57.06
59190;BME280;50749;51.636;4.948;2024-01-25T11:25:31;102896.38;;;15.99;56.98
59190;BME280;50749;51.636;4.948;2024-01-25T11:28:01;102913.75;;;16.00;56.95
59190;BME280;50749;51.636;4.948;2024-01-25T11:30:34;102904.94;;;15.97;57.25
59190;BME280;50749;51.636;4.948;2024-01-25T11:33:04;102917.59;;;15.98;57.06
59190;BME280;50749;51.636;4.948;2024-01-25T11:35:33;102919.84;;;15.96;57.07
59190;BME280;50749;51.636;4.948;2024-01-25T11:38:02;102908.81;;;15.96;57.18
59190;BME280;50749;51.636;4.948;2024-01-25T11:40:31;102908.81;;;15.96;57.25
59190;BME280;50749;51.636;4.948;2024-01-25T11:43:02;102909.66;;;15.97;57.40
59190;BME280;50749;51.636;4.948;2024-01-25T11:45:38;102908.81;;;15.96;57.30
59190;BME280;50749;51.636;4.948;2024-01-25T11:48:08;102910.75;;;15.96;57.28
59190;BME280;50749;51.636;4.948;2024-01-25T11:50:37;102912.69;;;15.95;57.17
59190;BME280;50749;51.636;4.948;2024-01-25T11:53:06;102911.03;;;15.94;57.34
59190;BME280;50749;51.636;4.948;2024-01-25T11:55:35;102886.22;;;15.94;57.08
59190;BME280;50749;51.636;4.948;2024-01-25T11:58:04;102864.44;;;15.93;57.42
59190;BME280;50749;51.636;4.948;2024-01-25T12:00:33;102858.94;;;15.93;57.39
59190;BME280;50749;51.636;4.948;2024-01-25T12:03:05;102849.84;;;15.92;57.46
59190;BME280;50749;51.636;4.948;2024-01-25T12:05:34;102857.28;;;15.92;57.44
59190;BME280;50749;51.636;4.948;2024-01-25T12:08:08;102856.47;;;15.91;57.20
59190;BME280;50749;51.636;4.948;2024-01-25T12:10:37;102848.19;;;15.91;57.47
59190;BME280;50749;51.636;4.948;2024-01-25T12:13:07;102848.78;;;15.88;57.65
59190;BME280;50749;51.636;4.948;2024-01-25T12:15:36;102849.31;;;15.90;57.45
59190;BME280;50749;51.636;4.948;2024-01-25T12:18:08;102826.69;;;15.88;57.34
59190;BME280;50749;51.636;4.948;2024-01-25T12:20:36;102835.81;;;15.89;57.81
59190;BME280;50749;51.636;4.948;2024-01-25T12:23:06;102826.41;;;15.90;57.63
59190;BME280;50749;51.636;4.948;2024-01-25T12:25:39;102822.84;;;15.89;57.65
59190;BME280;50749;51.636;4.948;2024-01-25T12:28:09;102830.31;;;15.89;57.99
59190;BME280;50749;51.636;4.948;2024-01-25T12:30:38;102818.13;;;15.90;58.08
59190;BME280;50749;51.636;4.948;2024-01-25T12:33:09;102805.19;;;15.90;57.73
59190;BME280;50749;51.636;4.948;2024-01-25T12:35:39;102809.06;;;15.89;58.11
59190;BME280;50749;51.636;4.948;2024-01-25T12:38:08;102805.19;;;15.90;58.19
59190;BME280;50749;51.636;4.948;2024-01-25T12:40:37;102805.19;;;15.90;58.12
59190;BME280;50749;51.636;4.948;2024-01-25T12:43:06;102798.03;;;15.89;58.03
59190;BME280;50749;51.636;4.948;2024-01-25T12:45:35;102798.03;;;15.89;58.03
59190;BME280;50749;51.636;4.948;2024-01-25T12:48:05;102803.53;;;15.89;58.17
59190;BME280;50749;51.636;4.948;2024-01-25T12:50:37;102805.19;;;15.90;58.43
59190;BME280;50749;51.636;4.948;2024-01-25T12:53:06;102809.88;;;15.90;58.24
59190;BME280;50749;51.636;4.948;2024-01-25T12:55:35;102811.81;;;15.89;58.10
59190;BME280;50749;51.636;4.948;2024-01-25T12:58:04;102796.38;;;15.88;58.32
59190;BME280;50749;51.636;4.948;2024-01-25T13:00:33;102792.50;;;15.89;57.87
59190;BME280;50749;51.636;4.948;2024-01-25T13:03:02;102803.53;;;15.89;57.37